Weather at Elefsis Airport

Public forecast

Using degrees Celsius for public forecast. Weather courtesy of forecast.io.

Current aviation weather report (METAR) for Elefsis Airport

Retrieved 2022/08/16 13:20 UTC (29 minutes ago):

LGEL 161320Z 18010KT CAVOK 32/20 Q1010

Aviation forecast (TAF) for Elefsis Airport

Retrieved 2022/08/16 12:12 UTC (2 hours ago):

TAF LGEL 161100Z 1612/1712 19010KT 9999 FEW030 BECMG 1616/1618 VRB05KT BECMG 1707/1709 34010KT FEW030 SCT070